createdAt,value
2023-03-07T00:00:21.453Z,43.48
2023-03-07T00:02:52.208Z,43.57
2023-03-07T00:05:20.231Z,43.50
2023-03-07T00:07:48.336Z,43.62
2023-03-07T00:10:16.374Z,43.44
2023-03-07T00:12:44.651Z,43.63
2023-03-07T00:15:15.302Z,43.50
2023-03-07T00:17:43.912Z,43.87
2023-03-07T00:20:14.939Z,43.75
2023-03-07T00:22:43.828Z,43.74
2023-03-07T00:25:11.542Z,43.61
2023-03-07T00:27:39.501Z,43.55
2023-03-07T00:30:08.284Z,43.58
2023-03-07T00:32:36.367Z,43.37
2023-03-07T00:35:04.447Z,43.38
2023-03-07T00:37:32.297Z,43.21
2023-03-07T00:40:00.179Z,43.13
2023-03-07T00:42:29.255Z,43.35
2023-03-07T00:44:57.151Z,43.14
2023-03-07T00:47:25.150Z,42.79
2023-03-07T00:49:52.940Z,42.82
2023-03-07T00:52:21.126Z,42.60
2023-03-07T00:54:49.046Z,42.74
2023-03-07T00:57:17.694Z,42.53
2023-03-07T00:59:46.377Z,42.73
2023-03-07T01:02:14.122Z,42.60
2023-03-07T01:04:42.397Z,42.35
2023-03-07T01:07:10.268Z,42.26
2023-03-07T01:09:38.371Z,42.01
2023-03-07T01:12:07.657Z,41.91
2023-03-07T01:14:35.323Z,41.80
2023-03-07T01:17:04.102Z,42.06
2023-03-07T01:19:31.862Z,42.17
2023-03-07T01:21:59.646Z,42.06
2023-03-07T01:24:27.599Z,42.03
2023-03-07T01:26:55.511Z,42.21
2023-03-07T01:29:24.627Z,42.33
2023-03-07T01:31:52.757Z,42.13
2023-03-07T01:34:20.900Z,42.44
2023-03-07T01:36:51.576Z,42.14
2023-03-07T01:39:19.421Z,42.71
2023-03-07T01:41:55.186Z,42.56
2023-03-07T01:44:28.101Z,42.11
2023-03-07T01:47:00.855Z,41.54
2023-03-07T01:49:46.365Z,41.94
2023-03-07T01:52:30.329Z,41.87
2023-03-07T01:55:16.859Z,41.69
2023-03-07T01:57:49.220Z,41.66
2023-03-07T02:00:40.474Z,41.62
2023-03-07T02:03:15.918Z,41.87
2023-03-07T02:05:55.877Z,41.65
2023-03-07T02:08:29.014Z,41.50
2023-03-07T02:10:56.803Z,41.38
2023-03-07T02:13:27.918Z,41.57
2023-03-07T02:15:57.099Z,41.47
2023-03-07T02:18:27.675Z,41.42
2023-03-07T02:21:19.310Z,41.28
2023-03-07T02:23:50.587Z,41.13
2023-03-07T02:26:31.699Z,41.30
2023-03-07T02:29:01.525Z,41.24
2023-03-07T02:31:30.840Z,41.46
2023-03-07T02:33:58.711Z,41.35
2023-03-07T02:36:35.394Z,41.45
2023-03-07T02:39:21.794Z,41.38
2023-03-07T02:41:55.293Z,41.49
2023-03-07T02:44:31.183Z,40.97
2023-03-07T02:46:58.954Z,40.69
2023-03-07T02:49:29.395Z,40.59
2023-03-07T02:52:00.747Z,40.49
2023-03-07T02:54:33.067Z,39.99
2023-03-07T02:57:00.856Z,39.87
2023-03-07T02:59:28.788Z,39.81
2023-03-07T03:01:58.260Z,39.23
2023-03-07T03:04:26.304Z,39.08
2023-03-07T03:06:54.297Z,38.54
2023-03-07T03:09:22.092Z,38.57
2023-03-07T03:11:51.301Z,38.41
2023-03-07T03:14:23.029Z,38.39
2023-03-07T03:16:53.256Z,38.76
2023-03-07T03:19:22.173Z,37.95
2023-03-07T03:21:52.291Z,38.28
2023-03-07T03:24:20.262Z,38.35
2023-03-07T03:26:49.339Z,38.02
2023-03-07T03:29:18.955Z,37.97
2023-03-07T03:31:47.760Z,38.06
2023-03-07T03:34:15.737Z,37.99
2023-03-07T03:36:43.603Z,38.39
2023-03-07T03:39:11.799Z,38.72
2023-03-07T03:41:45.863Z,39.18
2023-03-07T03:44:14.491Z,39.54
2023-03-07T03:46:42.810Z,39.57
2023-03-07T03:49:13.674Z,40.07
2023-03-07T03:51:42.660Z,40.39
2023-03-07T03:54:10.694Z,39.91
2023-03-07T03:56:40.222Z,39.79
2023-03-07T03:59:08.995Z,40.05
2023-03-07T04:01:36.946Z,39.35
2023-03-07T04:04:05.552Z,39.01
2023-03-07T04:06:35.107Z,38.44
2023-03-07T04:09:05.218Z,38.59
2023-03-07T04:11:33.491Z,38.37
2023-03-07T04:14:02.789Z,38.38
2023-03-07T04:16:31.405Z,37.68
2023-03-07T04:19:00.204Z,37.96
2023-03-07T04:21:27.999Z,37.93
2023-03-07T04:23:58.702Z,37.23
2023-03-07T04:26:30.083Z,37.83
2023-03-07T04:28:58.658Z,36.74
2023-03-07T04:31:36.301Z,36.96
2023-03-07T04:34:05.788Z,37.07
2023-03-07T04:36:34.426Z,36.52
2023-03-07T04:39:02.333Z,36.92
2023-03-07T04:41:31.237Z,36.65
2023-03-07T04:44:28.317Z,36.22
2023-03-07T04:46:57.891Z,36.56
2023-03-07T04:49:27.229Z,36.80
2023-03-07T04:51:55.694Z,36.28
2023-03-07T04:54:23.751Z,36.26
2023-03-07T04:56:51.693Z,36.56
2023-03-07T04:59:21.403Z,36.27
2023-03-07T05:01:49.943Z,36.41
2023-03-07T05:04:17.889Z,35.68
2023-03-07T05:06:46.083Z,35.83
2023-03-07T05:09:14.766Z,35.84
2023-03-07T05:11:42.974Z,36.09
2023-03-07T05:14:10.802Z,35.62
2023-03-07T05:16:38.618Z,36.01
2023-03-07T05:19:07.809Z,35.65
2023-03-07T05:21:36.069Z,36.12
2023-03-07T05:24:04.936Z,35.81
2023-03-07T05:26:34.287Z,35.94
2023-03-07T05:29:02.315Z,35.77
2023-03-07T05:31:30.981Z,35.60
2023-03-07T05:33:59.528Z,35.54
2023-03-07T05:36:27.658Z,35.28
2023-03-07T05:38:57.299Z,35.69
2023-03-07T05:41:25.645Z,35.79
2023-03-07T05:43:55.544Z,35.82
2023-03-07T05:46:24.854Z,36.04
2023-03-07T05:48:52.905Z,35.61
2023-03-07T05:51:20.848Z,35.91
2023-03-07T05:53:49.422Z,36.65
2023-03-07T05:56:17.359Z,36.39
2023-03-07T05:58:45.283Z,36.92
2023-03-07T06:01:13.516Z,36.88
2023-03-07T06:03:43.090Z,36.50
2023-03-07T06:06:14.920Z,36.89
2023-03-07T06:08:42.922Z,37.70
2023-03-07T06:11:11.368Z,37.39
2023-03-07T06:13:40.327Z,37.28
2023-03-07T06:16:08.362Z,37.11
2023-03-07T06:18:39.043Z,37.02
2023-03-07T06:21:08.539Z,37.09
2023-03-07T06:23:41.513Z,38.01
2023-03-07T06:26:13.580Z,38.38
2023-03-07T06:28:43.632Z,37.93
2023-03-07T06:31:19.532Z,39.35
2023-03-07T06:33:51.103Z,39.79
2023-03-07T06:36:21.947Z,37.76
2023-03-07T06:38:56.499Z,37.64
2023-03-07T06:41:25.216Z,37.29
2023-03-07T06:43:55.168Z,37.62
2023-03-07T06:46:28.232Z,37.94
2023-03-07T06:48:56.764Z,38.18
2023-03-07T06:51:25.426Z,38.39
2023-03-07T06:53:56.399Z,38.41
2023-03-07T06:56:29.938Z,38.35
2023-03-07T06:58:58.533Z,38.36
2023-03-07T07:01:26.848Z,38.49
2023-03-07T07:03:57.483Z,38.62
2023-03-07T07:06:28.868Z,38.70
2023-03-07T07:08:58.503Z,38.80
2023-03-07T07:11:30.287Z,39.05
2023-03-07T07:13:58.527Z,39.08
2023-03-07T07:16:26.582Z,39.32
2023-03-07T07:18:54.742Z,39.83
2023-03-07T07:21:24.208Z,39.71
2023-03-07T07:23:52.333Z,39.08
2023-03-07T07:26:20.969Z,38.63
2023-03-07T07:28:48.990Z,38.77
2023-03-07T07:31:16.811Z,39.05
2023-03-07T07:33:46.541Z,38.76
2023-03-07T07:36:16.455Z,38.74
2023-03-07T07:38:45.040Z,38.75
2023-03-07T07:41:13.530Z,38.73
2023-03-07T07:43:42.132Z,38.34
2023-03-07T07:46:17.562Z,38.23
2023-03-07T07:48:48.190Z,38.54
2023-03-07T07:51:17.013Z,38.78
2023-03-07T07:53:45.158Z,38.78
2023-03-07T07:56:13.433Z,38.84
2023-03-07T07:58:41.361Z,39.12
2023-03-07T08:01:16.682Z,39.28
2023-03-07T08:03:45.053Z,39.52
2023-03-07T08:06:13.818Z,39.58
2023-03-07T08:08:42.621Z,40.24
2023-03-07T08:11:10.379Z,39.45
2023-03-07T08:13:39.892Z,39.04
2023-03-07T08:16:10.944Z,38.90
2023-03-07T08:18:38.758Z,38.73
2023-03-07T08:21:07.226Z,38.76
2023-03-07T08:23:36.080Z,39.41
2023-03-07T08:26:06.573Z,38.86
2023-03-07T08:28:34.990Z,38.58
2023-03-07T08:31:11.712Z,38.31
2023-03-07T08:33:40.156Z,38.25
2023-03-07T08:36:08.690Z,37.74
2023-03-07T08:38:36.749Z,38.14
2023-03-07T08:41:06.780Z,38.56
2023-03-07T08:43:36.727Z,38.77
2023-03-07T08:46:04.726Z,39.28
2023-03-07T08:48:32.796Z,39.35
2023-03-07T08:51:13.045Z,39.79
2023-03-07T08:53:43.159Z,39.77
2023-03-07T08:56:13.568Z,39.33
2023-03-07T08:58:41.879Z,39.79
2023-03-07T09:01:10.471Z,39.48
2023-03-07T09:03:38.238Z,39.54
2023-03-07T09:06:06.539Z,39.57
2023-03-07T09:08:34.458Z,39.61
2023-03-07T09:11:05.559Z,39.31
2023-03-07T09:13:43.055Z,39.08
2023-03-07T09:16:17.834Z,39.05
2023-03-07T09:18:45.544Z,39.03
2023-03-07T09:21:13.310Z,39.03
2023-03-07T09:23:43.371Z,39.40
2023-03-07T09:26:11.395Z,39.46
2023-03-07T09:28:39.136Z,39.33
2023-03-07T09:31:09.254Z,39.34
2023-03-07T09:33:37.633Z,39.47
2023-03-07T09:36:08.963Z,39.96
2023-03-07T09:38:37.216Z,39.63
2023-03-07T09:41:15.423Z,39.57
2023-03-07T09:43:57.894Z,40.07
2023-03-07T09:47:10.649Z,39.89
2023-03-07T09:49:52.502Z,40.41
2023-03-07T09:52:27.630Z,40.21
2023-03-07T09:55:02.057Z,39.83
2023-03-07T09:57:39.082Z,39.49
2023-03-07T10:00:19.211Z,38.70
2023-03-07T10:03:13.590Z,38.19
2023-03-07T10:05:50.375Z,38.37
2023-03-07T10:08:33.104Z,38.34
2023-03-07T10:11:29.274Z,38.65
2023-03-07T10:14:08.570Z,38.45
2023-03-07T10:16:51.636Z,38.52
2023-03-07T10:19:35.021Z,38.60
2023-03-07T10:22:13.627Z,39.04
2023-03-07T10:25:00.560Z,39.95
2023-03-07T10:27:30.955Z,39.56
2023-03-07T10:30:01.103Z,39.37
2023-03-07T10:32:40.178Z,39.59
2023-03-07T10:35:11.385Z,39.62
2023-03-07T10:37:56.944Z,38.71
2023-03-07T10:40:46.931Z,39.11
2023-03-07T10:43:32.190Z,38.82
2023-03-07T10:46:27.475Z,39.92
2023-03-07T10:48:58.269Z,39.99
2023-03-07T10:51:41.548Z,39.79
2023-03-07T10:54:16.397Z,40.08
2023-03-07T10:57:09.109Z,39.77
2023-03-07T10:59:39.323Z,39.24
2023-03-07T11:02:42.285Z,39.45
2023-03-07T11:05:32.040Z,39.20
2023-03-07T11:08:00.752Z,38.85
2023-03-07T11:10:41.070Z,39.23
2023-03-07T11:13:17.990Z,39.09
2023-03-07T11:15:46.243Z,39.26
2023-03-07T11:18:42.292Z,39.33
2023-03-07T11:21:31.323Z,39.17
2023-03-07T11:24:26.791Z,39.87
2023-03-07T11:26:59.360Z,39.50
2023-03-07T11:29:28.696Z,39.34
2023-03-07T11:32:21.527Z,40.01
2023-03-07T11:34:52.333Z,39.35
2023-03-07T11:37:42.855Z,39.45
2023-03-07T11:40:27.207Z,39.64
2023-03-07T11:43:42.880Z,39.64
2023-03-07T11:46:40.022Z,39.70
2023-03-07T11:49:27.426Z,39.95
2023-03-07T11:52:01.268Z,39.93
2023-03-07T11:55:16.782Z,40.65
2023-03-07T11:58:04.488Z,40.17
2023-03-07T12:00:47.492Z,40.56
2023-03-07T12:03:37.130Z,40.59
2023-03-07T12:06:27.157Z,40.75
2023-03-07T12:09:03.882Z,41.73
2023-03-07T12:11:43.904Z,41.09
2023-03-07T12:14:27.593Z,41.24
2023-03-07T12:16:55.434Z,41.93
2023-03-07T12:19:26.399Z,41.92
2023-03-07T12:22:26.004Z,42.11
2023-03-07T12:25:38.494Z,42.21
2023-03-07T12:28:23.194Z,42.31
2023-03-07T12:30:56.996Z,42.34
2023-03-07T12:33:43.025Z,42.59
2023-03-07T12:36:21.809Z,43.21
2023-03-07T12:38:57.030Z,43.08
2023-03-07T12:41:47.913Z,43.59
2023-03-07T12:44:30.017Z,43.37
2023-03-07T12:47:08.703Z,43.93
2023-03-07T12:49:54.008Z,44.06
2023-03-07T12:52:32.658Z,44.66
2023-03-07T12:55:33.927Z,44.90
2023-03-07T12:58:32.153Z,45.00
2023-03-07T13:01:05.321Z,44.60
2023-03-07T13:03:58.047Z,44.18
2023-03-07T13:06:26.917Z,43.76
2023-03-07T13:08:59.196Z,46.39
2023-03-07T13:11:30.711Z,45.08
2023-03-07T13:14:03.479Z,44.62
2023-03-07T13:16:34.747Z,44.51
2023-03-07T13:19:35.551Z,44.21
2023-03-07T13:22:24.328Z,44.18
2023-03-07T13:24:57.006Z,44.69
2023-03-07T13:27:31.233Z,44.09
2023-03-07T13:30:08.427Z,44.17
2023-03-07T13:32:51.320Z,44.16
2023-03-07T13:35:31.055Z,43.42
2023-03-07T13:38:11.389Z,43.99
2023-03-07T13:40:54.596Z,43.59
2023-03-07T13:43:27.814Z,42.93
2023-03-07T13:46:18.805Z,43.37
2023-03-07T13:48:49.727Z,43.16
2023-03-07T13:51:17.551Z,42.77
2023-03-07T13:53:50.623Z,43.15
2023-03-07T13:56:25.299Z,42.46
2023-03-07T13:59:20.789Z,42.13
2023-03-07T14:02:14.886Z,41.74
2023-03-07T14:04:54.600Z,42.69
2023-03-07T14:07:29.230Z,42.02
2023-03-07T14:10:22.328Z,41.82
2023-03-07T14:13:14.184Z,42.08
2023-03-07T14:16:00.965Z,41.83
2023-03-07T14:18:44.871Z,41.57
2023-03-07T14:21:21.756Z,41.38
2023-03-07T14:24:07.710Z,41.39
2023-03-07T14:26:40.779Z,41.49
2023-03-07T14:29:22.707Z,41.45
2023-03-07T14:31:53.958Z,40.95
2023-03-07T14:34:21.896Z,40.82
2023-03-07T14:36:56.604Z,40.79
2023-03-07T14:39:29.769Z,41.04
2023-03-07T14:42:23.324Z,40.07
2023-03-07T14:45:03.152Z,40.17
2023-03-07T14:48:28.337Z,39.99
2023-03-07T14:51:02.375Z,40.49
2023-03-07T14:53:32.464Z,40.27
2023-03-07T14:56:01.232Z,40.77
2023-03-07T14:58:32.674Z,40.34
2023-03-07T15:01:18.675Z,39.99
2023-03-07T15:03:58.034Z,39.80
2023-03-07T15:06:29.172Z,39.56
2023-03-07T15:08:59.349Z,39.53
2023-03-07T15:11:33.008Z,39.76
2023-03-07T15:14:25.461Z,39.76
2023-03-07T15:16:56.932Z,40.70
2023-03-07T15:19:42.392Z,40.78
2023-03-07T15:22:33.829Z,41.18
2023-03-07T15:25:01.703Z,41.33
2023-03-07T15:27:31.678Z,41.34
2023-03-07T15:30:02.383Z,41.70
2023-03-07T15:32:39.174Z,41.23
2023-03-07T15:35:11.067Z,40.63
2023-03-07T15:38:01.689Z,40.05
2023-03-07T15:40:34.876Z,40.42
2023-03-07T15:43:05.811Z,40.66
2023-03-07T15:45:41.897Z,40.50
2023-03-07T15:48:32.168Z,39.84
2023-03-07T15:51:02.507Z,40.04
2023-03-07T15:53:41.831Z,40.41
2023-03-07T15:56:36.595Z,39.98
2023-03-07T15:59:26.692Z,40.23
2023-03-07T16:01:54.706Z,40.42
2023-03-07T16:04:43.182Z,40.49
2023-03-07T16:07:18.276Z,39.62
2023-03-07T16:09:46.109Z,39.49
2023-03-07T16:12:20.959Z,39.10
2023-03-07T16:14:51.889Z,39.86
2023-03-07T16:17:25.791Z,39.74
2023-03-07T16:19:54.161Z,40.28
2023-03-07T16:22:22.560Z,39.60
2023-03-07T16:24:50.363Z,40.40
2023-03-07T16:27:21.472Z,39.93
2023-03-07T16:29:50.458Z,39.64
2023-03-07T16:32:22.068Z,39.48
2023-03-07T16:34:50.568Z,40.33
2023-03-07T16:37:18.506Z,40.28
2023-03-07T16:39:46.375Z,40.34
2023-03-07T16:42:23.126Z,40.19
2023-03-07T16:44:52.824Z,40.39
2023-03-07T16:47:20.744Z,40.51
2023-03-07T16:49:49.115Z,40.71
2023-03-07T16:52:17.521Z,39.70
2023-03-07T16:54:45.810Z,40.24
2023-03-07T16:57:16.171Z,40.42
2023-03-07T16:59:46.675Z,40.41
2023-03-07T17:02:20.266Z,40.60
2023-03-07T17:04:48.503Z,40.37
2023-03-07T17:07:19.913Z,40.02
2023-03-07T17:09:47.907Z,39.77
2023-03-07T17:12:16.784Z,39.27
2023-03-07T17:14:45.188Z,39.31
2023-03-07T17:17:29.146Z,39.03
2023-03-07T17:19:57.047Z,39.12
2023-03-07T17:22:24.900Z,39.24
2023-03-07T17:24:52.632Z,42.73
2023-03-07T17:27:20.781Z,40.14
2023-03-07T17:29:52.542Z,39.63
2023-03-07T17:32:20.815Z,39.91
2023-03-07T17:34:48.722Z,39.93
2023-03-07T17:37:16.636Z,39.89
2023-03-07T17:39:45.828Z,41.06
2023-03-07T17:42:13.591Z,40.71
2023-03-07T17:44:41.894Z,40.94
2023-03-07T17:47:10.872Z,40.00
2023-03-07T17:49:39.463Z,39.43
2023-03-07T17:52:08.297Z,39.21
2023-03-07T17:54:38.425Z,39.25
2023-03-07T17:57:08.022Z,39.08
2023-03-07T17:59:36.017Z,38.82
2023-03-07T18:02:05.912Z,38.51
2023-03-07T18:04:34.131Z,39.17
2023-03-07T18:07:03.101Z,39.78
2023-03-07T18:09:31.890Z,39.90
2023-03-07T18:12:01.113Z,39.92
2023-03-07T18:14:30.239Z,39.85
2023-03-07T18:16:58.045Z,39.86
2023-03-07T18:19:27.227Z,39.84
2023-03-07T18:21:55.750Z,39.80
2023-03-07T18:24:30.203Z,39.53
2023-03-07T18:27:05.191Z,40.14
2023-03-07T18:29:33.110Z,40.34
2023-03-07T18:32:01.344Z,39.77
2023-03-07T18:34:29.061Z,39.50
2023-03-07T18:36:57.267Z,39.71
2023-03-07T18:39:25.038Z,39.03
2023-03-07T18:41:53.145Z,38.79
2023-03-07T18:44:23.538Z,39.41
2023-03-07T18:46:52.356Z,41.22
2023-03-07T18:49:20.194Z,40.31
2023-03-07T18:51:48.585Z,40.49
2023-03-07T18:54:17.069Z,40.09
2023-03-07T18:56:48.402Z,39.46
2023-03-07T18:59:17.580Z,39.25
2023-03-07T19:01:45.756Z,39.18
2023-03-07T19:04:13.784Z,39.27
2023-03-07T19:06:45.504Z,39.13
2023-03-07T19:09:18.975Z,39.37
2023-03-07T19:11:48.100Z,39.93
2023-03-07T19:14:17.735Z,39.73
2023-03-07T19:16:45.553Z,39.42
2023-03-07T19:19:13.372Z,42.60
2023-03-07T19:21:42.348Z,42.44
2023-03-07T19:24:12.127Z,41.19
2023-03-07T19:26:50.063Z,40.76
2023-03-07T19:29:25.997Z,40.32
2023-03-07T19:31:54.777Z,40.01
2023-03-07T19:34:23.827Z,40.03
2023-03-07T19:36:51.556Z,39.93
2023-03-07T19:39:20.821Z,40.44
2023-03-07T19:41:48.636Z,40.26
2023-03-07T19:44:17.266Z,41.25
2023-03-07T19:46:47.912Z,41.77
2023-03-07T19:49:16.796Z,41.85
2023-03-07T19:51:44.748Z,42.57
2023-03-07T19:54:14.397Z,42.22
2023-03-07T19:56:45.210Z,41.52
2023-03-07T19:59:13.562Z,40.96
2023-03-07T20:01:41.473Z,41.04
2023-03-07T20:04:11.994Z,40.82
2023-03-07T20:06:42.415Z,40.58
2023-03-07T20:09:13.320Z,40.43
2023-03-07T20:11:45.947Z,40.26
2023-03-07T20:14:14.043Z,40.01
2023-03-07T20:16:43.088Z,39.78
2023-03-07T20:19:11.077Z,39.88
2023-03-07T20:21:40.604Z,40.41
2023-03-07T20:24:08.817Z,40.42
2023-03-07T20:26:39.524Z,40.51
2023-03-07T20:29:09.605Z,40.94
2023-03-07T20:31:39.586Z,40.60
2023-03-07T20:34:08.228Z,40.72
2023-03-07T20:36:37.735Z,40.93
2023-03-07T20:39:08.382Z,41.12
2023-03-07T20:41:36.692Z,41.17
2023-03-07T20:44:10.508Z,41.00
2023-03-07T20:46:39.285Z,41.22
2023-03-07T20:49:08.865Z,41.61
2023-03-07T20:51:37.109Z,41.75
2023-03-07T20:54:14.601Z,42.66
2023-03-07T20:56:42.886Z,42.16
2023-03-07T20:59:14.145Z,42.92
2023-03-07T21:01:43.511Z,43.28
2023-03-07T21:04:13.699Z,43.57
2023-03-07T21:06:44.680Z,43.43
2023-03-07T21:09:14.605Z,44.08
2023-03-07T21:11:47.807Z,43.90
2023-03-07T21:14:17.309Z,44.27
2023-03-07T21:16:45.388Z,44.58
2023-03-07T21:19:13.741Z,44.42
2023-03-07T21:21:42.586Z,44.66
2023-03-07T21:24:15.790Z,44.83
2023-03-07T21:26:44.197Z,44.70
2023-03-07T21:29:13.997Z,44.85
2023-03-07T21:31:43.892Z,44.82
2023-03-07T21:34:14.087Z,46.53
2023-03-07T21:36:42.161Z,46.84
2023-03-07T21:39:11.745Z,46.18
2023-03-07T21:41:39.608Z,45.22
2023-03-07T21:44:07.667Z,44.81
2023-03-07T21:46:37.562Z,44.98
2023-03-07T21:49:06.581Z,45.59
2023-03-07T21:51:34.581Z,44.67
2023-03-07T21:54:02.332Z,44.55
2023-03-07T21:56:30.397Z,44.51
2023-03-07T21:58:58.321Z,44.39
2023-03-07T22:01:28.932Z,43.79
2023-03-07T22:03:59.304Z,44.18
2023-03-07T22:06:28.645Z,43.95
2023-03-07T22:08:56.632Z,44.27
2023-03-07T22:11:24.336Z,44.15
2023-03-07T22:13:52.206Z,44.35
2023-03-07T22:16:21.710Z,44.03
2023-03-07T22:18:54.446Z,44.15
2023-03-07T22:21:26.190Z,43.63
2023-03-07T22:24:00.788Z,43.59
2023-03-07T22:26:31.075Z,43.68
2023-03-07T22:28:59.720Z,43.81
2023-03-07T22:31:29.559Z,44.19
2023-03-07T22:33:58.934Z,43.80
2023-03-07T22:36:26.686Z,43.77
2023-03-07T22:38:56.460Z,43.76
2023-03-07T22:41:25.754Z,44.40
2023-03-07T22:43:53.723Z,44.46
2023-03-07T22:46:22.391Z,44.40
2023-03-07T22:48:57.207Z,44.89
2023-03-07T22:51:25.625Z,44.64
2023-03-07T22:53:55.552Z,44.35
2023-03-07T22:56:27.637Z,44.15
2023-03-07T22:58:55.627Z,44.27
2023-03-07T23:01:26.163Z,44.28
2023-03-07T23:03:55.355Z,44.22
2023-03-07T23:06:26.025Z,44.50
2023-03-07T23:08:54.602Z,44.85
2023-03-07T23:11:24.593Z,45.22
2023-03-07T23:13:53.670Z,44.85
2023-03-07T23:16:29.956Z,44.86
2023-03-07T23:18:59.064Z,44.98
2023-03-07T23:21:30.241Z,44.91
2023-03-07T23:23:58.544Z,45.32
2023-03-07T23:26:29.588Z,45.12
2023-03-07T23:28:58.011Z,45.33
2023-03-07T23:31:29.720Z,45.25
2023-03-07T23:33:59.861Z,45.19
2023-03-07T23:36:29.786Z,45.31
2023-03-07T23:38:58.934Z,45.47
2023-03-07T23:41:27.898Z,45.63
2023-03-07T23:43:58.395Z,45.57
2023-03-07T23:46:28.647Z,45.65
2023-03-07T23:48:57.315Z,45.18
2023-03-07T23:51:25.839Z,45.87
2023-03-07T23:53:53.844Z,45.56
2023-03-07T23:56:21.706Z,45.69
2023-03-07T23:58:53.578Z,46.05
